createdAt,value
2019-03-29T00:01:27.049Z,68.10
2019-03-29T00:03:58.242Z,68.20
2019-03-29T00:06:29.415Z,68.30
2019-03-29T00:09:01.936Z,68.40
2019-03-29T00:11:35.033Z,68.00
2019-03-29T00:14:06.723Z,67.90
2019-03-29T00:16:37.785Z,67.70
2019-03-29T00:19:09.016Z,67.60
2019-03-29T00:21:40.655Z,67.60
2019-03-29T00:24:12.236Z,67.50
2019-03-29T00:26:43.470Z,67.70
2019-03-29T00:29:16.173Z,67.70
2019-03-29T00:31:47.247Z,67.50
2019-03-29T00:34:18.631Z,67.60
2019-03-29T00:36:50.275Z,67.50
2019-03-29T00:39:21.419Z,67.60
2019-03-29T00:41:52.638Z,67.70
2019-03-29T00:44:23.923Z,67.80
2019-03-29T00:46:55.115Z,68.10
2019-03-29T00:49:26.367Z,68.10
2019-03-29T00:51:57.592Z,68.30
2019-03-29T00:54:28.754Z,68.60
2019-03-29T00:57:00.009Z,68.70
2019-03-29T00:59:31.220Z,69.00
2019-03-29T01:02:02.453Z,69.30
2019-03-29T01:04:34.032Z,69.30
2019-03-29T01:07:05.303Z,69.40
2019-03-29T01:09:36.435Z,69.50
2019-03-29T01:12:07.599Z,69.50
2019-03-29T01:14:38.845Z,69.30
2019-03-29T01:17:10.012Z,70.00
2019-03-29T01:19:41.104Z,70.30
2019-03-29T01:22:13.266Z,70.40
2019-03-29T01:24:44.487Z,71.10
2019-03-29T01:27:15.768Z,71.20
2019-03-29T01:29:47.014Z,71.40
2019-03-29T01:32:18.278Z,71.60
2019-03-29T01:34:49.530Z,71.50
2019-03-29T01:37:20.729Z,71.90
2019-03-29T01:39:51.888Z,71.90
2019-03-29T01:42:22.955Z,72.10
2019-03-29T01:44:54.131Z,72.30
2019-03-29T01:47:25.191Z,72.40
2019-03-29T01:49:56.426Z,72.50
2019-03-29T01:52:30.143Z,72.50
2019-03-29T01:55:01.231Z,72.70
2019-03-29T01:57:32.910Z,72.90
2019-03-29T02:00:09.064Z,72.90
2019-03-29T02:02:40.866Z,73.00
2019-03-29T02:05:12.115Z,73.20
2019-03-29T02:07:43.415Z,73.20
2019-03-29T02:10:15.094Z,73.20
2019-03-29T02:12:46.152Z,73.20
2019-03-29T02:15:17.361Z,73.30
2019-03-29T02:17:48.704Z,73.60
2019-03-29T02:20:19.977Z,73.70
2019-03-29T02:22:51.177Z,73.80
2019-03-29T02:25:22.443Z,73.70
2019-03-29T02:27:53.651Z,73.80
2019-03-29T02:30:25.244Z,74.00
2019-03-29T02:32:56.440Z,74.10
2019-03-29T02:35:27.619Z,74.10
2019-03-29T02:37:58.792Z,74.00
2019-03-29T02:40:30.134Z,74.20
2019-03-29T02:43:01.806Z,73.90
2019-03-29T02:45:33.149Z,74.10
2019-03-29T02:48:04.197Z,74.10
2019-03-29T02:50:36.664Z,74.30
2019-03-29T02:53:08.055Z,74.20
2019-03-29T02:55:39.373Z,74.10
2019-03-29T02:58:10.589Z,73.90
2019-03-29T03:00:42.180Z,73.80
2019-03-29T03:03:13.363Z,73.60
2019-03-29T03:05:44.569Z,73.30
2019-03-29T03:08:16.146Z,73.20
2019-03-29T03:10:47.670Z,73.30
2019-03-29T03:13:18.753Z,73.30
2019-03-29T03:15:49.840Z,73.30
2019-03-29T03:18:21.083Z,73.30
2019-03-29T03:20:52.370Z,73.20
2019-03-29T03:23:24.506Z,73.30
2019-03-29T03:25:55.789Z,73.30
2019-03-29T03:28:27.396Z,73.30
2019-03-29T03:30:59.174Z,73.40
2019-03-29T03:33:30.382Z,73.40
2019-03-29T03:36:01.919Z,73.40
2019-03-29T03:38:33.095Z,73.50
2019-03-29T03:41:05.003Z,73.40
2019-03-29T03:43:36.322Z,73.40
2019-03-29T03:46:07.601Z,73.50
2019-03-29T03:48:39.019Z,73.50
2019-03-29T03:51:10.561Z,73.50
2019-03-29T03:53:42.590Z,73.30
2019-03-29T03:56:16.217Z,73.00
2019-03-29T03:58:49.215Z,72.80
2019-03-29T04:01:20.264Z,72.70
2019-03-29T04:03:51.826Z,72.60
2019-03-29T04:06:23.031Z,72.50
2019-03-29T04:08:54.317Z,72.90
2019-03-29T04:11:25.466Z,73.10
2019-03-29T04:13:56.774Z,73.10
2019-03-29T04:16:27.949Z,73.20
2019-03-29T04:18:59.183Z,73.50
2019-03-29T04:21:30.372Z,73.50
2019-03-29T04:24:01.599Z,73.60
2019-03-29T04:26:32.852Z,73.70
2019-03-29T04:29:05.364Z,73.80
2019-03-29T04:31:36.717Z,73.90
2019-03-29T04:34:07.819Z,74.00
2019-03-29T04:36:39.042Z,74.20
2019-03-29T04:39:10.232Z,74.10
2019-03-29T04:41:41.361Z,74.20
2019-03-29T04:44:12.564Z,74.50
2019-03-29T04:46:44.889Z,74.50
2019-03-29T04:49:16.169Z,74.60
2019-03-29T04:51:47.288Z,75.00
2019-03-29T04:54:18.362Z,75.10
2019-03-29T04:56:49.934Z,75.20
2019-03-29T04:59:21.043Z,75.40
2019-03-29T05:01:53.143Z,75.50
2019-03-29T05:04:24.429Z,75.70
2019-03-29T05:06:55.680Z,75.80
2019-03-29T05:09:26.906Z,75.90
2019-03-29T05:11:58.144Z,76.20
2019-03-29T05:14:29.385Z,76.20
2019-03-29T05:17:00.487Z,76.30
2019-03-29T05:19:31.722Z,76.10
2019-03-29T05:22:02.954Z,76.20
2019-03-29T05:24:34.489Z,75.90
2019-03-29T05:27:05.709Z,76.00
2019-03-29T05:29:36.955Z,76.00
2019-03-29T05:32:08.131Z,76.10
2019-03-29T05:34:39.429Z,76.10
2019-03-29T05:37:10.635Z,75.80
2019-03-29T05:39:41.922Z,75.60
2019-03-29T05:42:13.206Z,75.80
2019-03-29T05:44:44.398Z,75.60
2019-03-29T05:47:19.196Z,75.50
2019-03-29T05:49:50.524Z,75.20
2019-03-29T05:52:21.699Z,74.40
2019-03-29T05:54:53.246Z,74.30
2019-03-29T05:57:24.433Z,73.50
2019-03-29T05:59:55.771Z,72.90
2019-03-29T06:02:26.839Z,72.90
2019-03-29T06:04:58.243Z,70.80
2019-03-29T06:07:30.718Z,66.20
2019-03-29T06:10:04.319Z,59.90
2019-03-29T06:12:36.349Z,58.20
2019-03-29T06:15:08.870Z,59.90
2019-03-29T06:17:48.595Z,57.80
2019-03-29T06:20:15.761Z,56.20
2019-03-29T06:22:48.459Z,53.50
2019-03-29T06:25:20.115Z,50.90
2019-03-29T06:27:51.787Z,49.10
2019-03-29T06:30:34.880Z,47.40
2019-03-29T06:33:08.245Z,46.00
2019-03-29T06:35:43.382Z,44.10
2019-03-29T06:38:17.110Z,43.20
2019-03-29T06:41:02.198Z,42.40
2019-03-29T06:43:23.245Z,41.20
2019-03-29T06:45:58.143Z,40.20
2019-03-29T06:48:30.261Z,38.90
2019-03-29T06:51:05.304Z,38.80
2019-03-29T06:53:41.510Z,38.20
2019-03-29T06:56:13.767Z,38.00
2019-03-29T06:58:45.027Z,38.40
2019-03-29T07:01:16.268Z,36.90
2019-03-29T07:03:47.453Z,36.10
2019-03-29T07:06:18.954Z,34.90
2019-03-29T07:08:50.165Z,34.40
2019-03-29T07:11:21.345Z,34.10
2019-03-29T07:13:57.644Z,33.50
2019-03-29T07:16:25.339Z,32.90
2019-03-29T07:18:56.535Z,31.90
2019-03-29T07:21:27.786Z,31.00
2019-03-29T07:23:58.981Z,30.20
2019-03-29T07:26:30.179Z,29.10
2019-03-29T07:29:01.365Z,28.80
2019-03-29T07:31:32.684Z,29.10
2019-03-29T07:34:03.965Z,28.30
2019-03-29T07:36:35.138Z,28.40
2019-03-29T07:39:07.333Z,27.80
2019-03-29T07:41:38.551Z,28.00
2019-03-29T07:44:09.831Z,27.00
2019-03-29T07:46:40.961Z,26.20
2019-03-29T07:49:12.223Z,25.70
2019-03-29T07:51:43.539Z,25.70
2019-03-29T07:54:15.186Z,25.50
2019-03-29T07:56:46.422Z,24.90
2019-03-29T07:59:17.622Z,24.50
2019-03-29T08:01:48.859Z,24.40
2019-03-29T08:04:21.628Z,24.20
2019-03-29T08:06:53.171Z,24.40
2019-03-29T08:09:24.447Z,23.80
2019-03-29T08:11:55.750Z,23.90
2019-03-29T08:14:26.855Z,23.50
2019-03-29T08:16:57.914Z,23.90
2019-03-29T08:19:29.070Z,23.00
2019-03-29T08:22:00.214Z,22.90
2019-03-29T08:24:31.968Z,22.70
2019-03-29T08:27:03.126Z,22.70
2019-03-29T08:29:34.447Z,22.90
2019-03-29T08:32:05.670Z,22.60
2019-03-29T08:34:36.882Z,21.50
2019-03-29T08:37:08.111Z,22.20
2019-03-29T08:39:39.197Z,24.10
2019-03-29T08:42:10.500Z,24.10
2019-03-29T08:44:41.785Z,23.50
2019-03-29T08:47:12.998Z,22.70
2019-03-29T08:49:44.179Z,22.20
2019-03-29T08:52:15.465Z,23.00
2019-03-29T08:54:46.967Z,23.20
2019-03-29T08:57:18.578Z,23.50
2019-03-29T08:59:49.848Z,23.20
2019-03-29T09:02:21.207Z,22.50
2019-03-29T09:04:52.829Z,22.20
2019-03-29T09:07:24.094Z,22.30
2019-03-29T09:09:55.349Z,23.10
2019-03-29T09:12:26.551Z,22.40
2019-03-29T09:14:57.775Z,23.00
2019-03-29T09:17:28.866Z,22.90
2019-03-29T09:20:00.001Z,22.20
2019-03-29T09:22:31.275Z,21.90
2019-03-29T09:25:02.435Z,21.80
2019-03-29T09:27:33.549Z,21.30
2019-03-29T09:30:05.350Z,20.70
2019-03-29T09:32:36.812Z,21.10
2019-03-29T09:35:08.395Z,21.90
2019-03-29T09:37:39.920Z,22.90
2019-03-29T09:40:14.002Z,23.00
2019-03-29T09:42:45.492Z,22.20
2019-03-29T09:45:16.740Z,21.60
2019-03-29T09:47:47.995Z,20.90
2019-03-29T09:50:22.486Z,21.30
2019-03-29T09:52:52.238Z,22.40
2019-03-29T09:55:24.126Z,22.20
2019-03-29T09:57:55.285Z,21.20
2019-03-29T10:00:26.503Z,20.80
2019-03-29T10:02:57.589Z,21.20
2019-03-29T10:05:31.325Z,22.20
2019-03-29T10:08:01.817Z,22.90
2019-03-29T10:10:34.747Z,23.40
2019-03-29T10:13:06.148Z,23.90
2019-03-29T10:15:40.489Z,24.20
2019-03-29T10:18:14.598Z,23.90
2019-03-29T10:20:45.717Z,23.30
2019-03-29T10:23:16.752Z,22.70
2019-03-29T10:25:47.876Z,22.90
2019-03-29T10:28:19.133Z,22.70
2019-03-29T10:30:50.232Z,22.20
2019-03-29T10:33:21.882Z,22.00
2019-03-29T10:35:53.246Z,22.00
2019-03-29T10:38:24.494Z,22.00
2019-03-29T10:40:55.718Z,22.70
2019-03-29T10:43:27.021Z,22.50
2019-03-29T10:45:58.284Z,23.10
2019-03-29T10:48:29.579Z,23.60
2019-03-29T10:51:01.103Z,24.60
2019-03-29T10:53:32.575Z,25.20
2019-03-29T10:56:04.753Z,25.80
2019-03-29T10:58:35.920Z,26.10
2019-03-29T11:01:07.281Z,26.50
2019-03-29T11:03:38.379Z,26.60
2019-03-29T11:06:09.639Z,26.90
2019-03-29T11:08:43.465Z,27.20
2019-03-29T11:11:13.711Z,27.70
2019-03-29T11:13:45.020Z,27.80
2019-03-29T11:16:16.260Z,28.10
2019-03-29T11:18:47.546Z,28.10
2019-03-29T11:21:19.407Z,27.90
2019-03-29T11:23:50.616Z,28.00
2019-03-29T11:26:21.817Z,28.20
2019-03-29T11:28:53.109Z,28.40
2019-03-29T11:31:25.583Z,28.60
2019-03-29T11:33:57.031Z,28.90
2019-03-29T11:36:28.535Z,29.30
2019-03-29T11:38:59.810Z,29.60
2019-03-29T11:41:30.992Z,29.80
2019-03-29T11:44:02.385Z,29.70
2019-03-29T11:46:33.637Z,29.90
2019-03-29T11:49:04.982Z,30.10
2019-03-29T11:51:36.713Z,30.10
2019-03-29T11:54:08.037Z,30.30
2019-03-29T11:56:39.223Z,30.70
2019-03-29T11:59:10.490Z,30.90
2019-03-29T12:01:41.631Z,30.90
2019-03-29T12:04:12.918Z,31.00
2019-03-29T12:06:44.270Z,31.20
2019-03-29T12:09:15.444Z,31.70
2019-03-29T12:11:46.817Z,31.80
2019-03-29T12:14:17.909Z,32.00
2019-03-29T12:16:49.197Z,32.10
2019-03-29T12:19:20.436Z,32.40
2019-03-29T12:21:53.159Z,32.40
2019-03-29T12:24:24.335Z,32.60
2019-03-29T12:26:55.538Z,32.80
2019-03-29T12:29:26.838Z,32.40
2019-03-29T12:31:58.068Z,32.30
2019-03-29T12:34:29.337Z,32.50
2019-03-29T12:37:00.535Z,32.70
2019-03-29T12:39:31.772Z,32.90
2019-03-29T12:42:13.975Z,32.90
2019-03-29T12:44:45.340Z,32.90
2019-03-29T12:47:16.432Z,32.90
2019-03-29T12:49:47.701Z,33.10
2019-03-29T12:52:19.104Z,33.10
2019-03-29T12:54:50.525Z,33.30
2019-03-29T12:57:21.959Z,33.40
2019-03-29T12:59:53.344Z,33.50
2019-03-29T13:02:24.674Z,33.80
2019-03-29T13:04:56.051Z,34.20
2019-03-29T13:07:27.347Z,34.30
2019-03-29T13:09:58.642Z,34.20
2019-03-29T13:12:30.209Z,34.10
2019-03-29T13:15:01.427Z,34.60
2019-03-29T13:17:32.623Z,34.70
2019-03-29T13:20:03.868Z,34.70
2019-03-29T13:22:36.046Z,34.70
2019-03-29T13:25:07.827Z,34.80
2019-03-29T13:27:40.207Z,35.10
2019-03-29T13:30:12.353Z,35.20
2019-03-29T13:32:43.751Z,35.20
2019-03-29T13:35:14.875Z,35.30
2019-03-29T13:37:47.097Z,35.40
2019-03-29T13:40:21.071Z,35.60
2019-03-29T13:42:52.354Z,35.70
2019-03-29T13:45:23.609Z,35.60
2019-03-29T13:47:54.800Z,35.80
2019-03-29T13:50:25.995Z,35.20
2019-03-29T13:52:57.194Z,36.00
2019-03-29T13:55:28.412Z,35.90
2019-03-29T13:57:59.639Z,35.90
2019-03-29T14:00:30.997Z,36.00
2019-03-29T14:03:02.047Z,36.40
2019-03-29T14:05:33.261Z,36.30
2019-03-29T14:08:04.445Z,36.30
2019-03-29T14:10:35.669Z,36.80
2019-03-29T14:13:07.175Z,36.40
2019-03-29T14:15:38.318Z,36.40
2019-03-29T14:18:09.603Z,36.30
2019-03-29T14:20:40.918Z,36.70
2019-03-29T14:23:12.201Z,36.60
2019-03-29T14:25:43.479Z,36.60
2019-03-29T14:28:14.666Z,36.70
2019-03-29T14:30:45.907Z,36.80
2019-03-29T14:33:17.206Z,36.70
2019-03-29T14:35:48.403Z,36.60
2019-03-29T14:38:19.521Z,36.80
2019-03-29T14:40:51.011Z,36.90
2019-03-29T14:43:22.234Z,36.90
2019-03-29T14:45:53.647Z,37.40
2019-03-29T14:48:24.884Z,37.00
2019-03-29T14:50:56.103Z,37.10
2019-03-29T14:53:27.287Z,37.10
2019-03-29T14:55:58.687Z,37.30
2019-03-29T14:58:30.954Z,38.00
2019-03-29T15:01:02.274Z,37.20
2019-03-29T15:03:33.855Z,37.30
2019-03-29T15:06:05.049Z,37.30
2019-03-29T15:08:36.356Z,37.90
2019-03-29T15:11:21.274Z,37.40
2019-03-29T15:13:41.759Z,37.50
2019-03-29T15:16:12.960Z,36.90
2019-03-29T15:18:45.083Z,37.60
2019-03-29T15:21:16.255Z,37.80
2019-03-29T15:23:47.730Z,37.90
2019-03-29T15:26:18.891Z,38.10
2019-03-29T15:28:50.099Z,38.50
2019-03-29T15:31:21.673Z,38.20
2019-03-29T15:33:55.451Z,38.50
2019-03-29T15:36:25.854Z,38.50
2019-03-29T15:38:57.258Z,38.60
2019-03-29T15:41:29.451Z,38.60
2019-03-29T15:44:00.827Z,38.70
2019-03-29T15:46:32.299Z,38.80
2019-03-29T15:49:03.694Z,38.80
2019-03-29T15:51:34.870Z,38.70
2019-03-29T15:54:06.324Z,38.80
2019-03-29T15:56:37.673Z,38.90
2019-03-29T15:59:09.145Z,39.10
2019-03-29T16:01:40.615Z,39.20
2019-03-29T16:04:15.303Z,39.10
2019-03-29T16:06:47.153Z,39.20
2019-03-29T16:09:18.383Z,39.20
2019-03-29T16:11:49.667Z,39.60
2019-03-29T16:14:20.854Z,39.30
2019-03-29T16:16:52.115Z,39.40
2019-03-29T16:19:23.289Z,39.40
2019-03-29T16:21:54.454Z,39.60
2019-03-29T16:24:25.536Z,39.70
2019-03-29T16:26:56.637Z,39.80
2019-03-29T16:29:28.876Z,39.80
2019-03-29T16:32:00.026Z,39.90
2019-03-29T16:34:31.153Z,39.90
2019-03-29T16:37:02.247Z,40.00
2019-03-29T16:39:33.442Z,40.00
2019-03-29T16:42:04.698Z,40.20
2019-03-29T16:44:36.352Z,40.30
2019-03-29T16:47:07.534Z,40.20
2019-03-29T16:49:38.647Z,40.20
2019-03-29T16:52:09.906Z,40.40
2019-03-29T16:54:41.129Z,40.40
2019-03-29T16:57:12.303Z,40.50
2019-03-29T16:59:43.512Z,40.50
2019-03-29T17:02:14.835Z,40.60
2019-03-29T17:04:45.928Z,40.80
2019-03-29T17:07:17.034Z,40.80
2019-03-29T17:09:48.313Z,41.00
2019-03-29T17:12:19.739Z,41.00
2019-03-29T17:14:51.007Z,41.60
2019-03-29T17:17:22.642Z,41.10
2019-03-29T17:19:53.804Z,41.20
2019-03-29T17:22:25.359Z,41.20
2019-03-29T17:24:57.471Z,41.30
2019-03-29T17:27:28.813Z,41.30
2019-03-29T17:30:00.436Z,41.60
2019-03-29T17:32:32.623Z,41.70
2019-03-29T17:35:03.867Z,41.70
2019-03-29T17:37:35.137Z,41.90
2019-03-29T17:40:07.733Z,42.00
2019-03-29T17:42:39.431Z,41.90
2019-03-29T17:45:10.687Z,42.20
2019-03-29T17:47:41.926Z,42.20
2019-03-29T17:50:13.121Z,42.40
2019-03-29T17:52:45.921Z,42.40
2019-03-29T17:55:17.167Z,42.60
2019-03-29T17:57:48.742Z,42.50
2019-03-29T18:00:21.733Z,42.60
2019-03-29T18:02:52.840Z,42.70
2019-03-29T18:05:24.128Z,42.80
2019-03-29T18:07:55.638Z,43.00
2019-03-29T18:10:26.815Z,43.30
2019-03-29T18:12:58.170Z,43.20
2019-03-29T18:15:29.538Z,43.10
2019-03-29T18:18:02.170Z,43.30
2019-03-29T18:20:33.427Z,43.40
2019-03-29T18:23:05.501Z,43.50
2019-03-29T18:25:36.811Z,43.50
2019-03-29T18:28:07.964Z,43.50
2019-03-29T18:30:44.132Z,43.50
2019-03-29T18:33:15.391Z,43.70
2019-03-29T18:35:46.669Z,43.90
2019-03-29T18:38:17.851Z,43.90
2019-03-29T18:40:49.139Z,43.90
2019-03-29T18:43:21.023Z,43.90
2019-03-29T18:45:52.354Z,44.10
2019-03-29T18:48:23.897Z,44.10
2019-03-29T18:50:55.161Z,44.30
2019-03-29T18:53:26.694Z,44.30
2019-03-29T18:55:58.029Z,44.40
2019-03-29T18:58:29.465Z,44.50
2019-03-29T19:01:00.676Z,44.60
2019-03-29T19:03:31.846Z,44.60
2019-03-29T19:06:03.108Z,44.90
2019-03-29T19:08:35.375Z,44.80
2019-03-29T19:11:06.467Z,44.90
2019-03-29T19:13:37.760Z,45.00
2019-03-29T19:16:09.016Z,45.20
2019-03-29T19:18:40.213Z,45.20
2019-03-29T19:21:11.482Z,45.20
2019-03-29T19:23:42.736Z,45.40
2019-03-29T19:26:13.903Z,45.40
2019-03-29T19:28:45.107Z,45.50
2019-03-29T19:31:16.239Z,45.70
2019-03-29T19:33:47.436Z,45.80
2019-03-29T19:36:18.808Z,45.90
2019-03-29T19:38:50.044Z,46.10
2019-03-29T19:41:21.255Z,46.10
2019-03-29T19:43:52.676Z,46.30
2019-03-29T19:46:24.372Z,46.30
2019-03-29T19:48:57.574Z,45.90
2019-03-29T19:51:29.048Z,46.60
2019-03-29T19:54:07.305Z,46.50
2019-03-29T19:56:34.157Z,46.50
2019-03-29T19:59:05.511Z,46.60
2019-03-29T20:01:37.143Z,46.70
2019-03-29T20:04:09.713Z,47.30
2019-03-29T20:06:41.058Z,47.10
2019-03-29T20:09:12.224Z,47.10
2019-03-29T20:11:43.883Z,47.10
2019-03-29T20:14:15.116Z,47.20
2019-03-29T20:16:47.394Z,47.20
2019-03-29T20:19:20.189Z,47.40
2019-03-29T20:21:52.525Z,47.50
2019-03-29T20:24:23.799Z,47.50
2019-03-29T20:27:02.706Z,47.70
2019-03-29T20:29:34.046Z,47.70
2019-03-29T20:32:05.274Z,47.80
2019-03-29T20:34:36.424Z,47.90
2019-03-29T20:37:09.059Z,48.10
2019-03-29T20:39:40.433Z,48.10
2019-03-29T20:42:11.599Z,48.30
2019-03-29T20:44:42.825Z,48.40
2019-03-29T20:47:14.074Z,48.50
2019-03-29T20:49:45.313Z,48.70
2019-03-29T20:52:16.619Z,48.70
2019-03-29T20:54:47.740Z,48.80
2019-03-29T20:57:19.006Z,49.00
2019-03-29T20:59:50.206Z,49.00
2019-03-29T21:02:22.599Z,49.20
2019-03-29T21:04:53.912Z,49.30
2019-03-29T21:07:25.129Z,49.30
2019-03-29T21:09:57.695Z,49.60
2019-03-29T21:12:28.951Z,49.60
2019-03-29T21:15:00.149Z,49.60
2019-03-29T21:17:31.701Z,49.80
2019-03-29T21:20:02.970Z,49.90
2019-03-29T21:22:34.264Z,50.10
2019-03-29T21:25:06.698Z,50.10
2019-03-29T21:27:38.107Z,50.80
2019-03-29T21:30:11.084Z,50.40
2019-03-29T21:32:42.327Z,50.50
2019-03-29T21:35:13.677Z,50.50
2019-03-29T21:37:44.926Z,50.60
2019-03-29T21:40:16.463Z,50.70
2019-03-29T21:42:48.484Z,50.80
2019-03-29T21:45:28.719Z,51.00
2019-03-29T21:48:04.685Z,50.90
2019-03-29T21:50:25.577Z,51.00
2019-03-29T21:52:56.683Z,51.00
2019-03-29T21:55:28.231Z,51.00
2019-03-29T21:57:59.725Z,51.10
2019-03-29T22:00:31.061Z,51.20
2019-03-29T22:03:02.345Z,51.40
2019-03-29T22:05:33.715Z,51.50
2019-03-29T22:08:05.247Z,51.50
2019-03-29T22:10:36.526Z,51.60
2019-03-29T22:13:07.796Z,51.60
2019-03-29T22:15:39.106Z,51.90
2019-03-29T22:18:10.402Z,51.90
2019-03-29T22:20:41.702Z,52.00
2019-03-29T22:23:14.026Z,52.00
2019-03-29T22:25:45.341Z,52.20
2019-03-29T22:28:16.994Z,52.20
2019-03-29T22:30:48.808Z,52.40
2019-03-29T22:33:20.137Z,52.40
2019-03-29T22:35:51.341Z,52.50
2019-03-29T22:38:22.622Z,52.50
2019-03-29T22:40:54.074Z,52.50
2019-03-29T22:43:25.410Z,52.60
2019-03-29T22:45:57.643Z,52.60
2019-03-29T22:48:29.058Z,52.70
2019-03-29T22:51:00.256Z,52.80
2019-03-29T22:53:31.529Z,52.80
2019-03-29T22:56:02.742Z,52.90
2019-03-29T22:58:33.883Z,53.20
2019-03-29T23:01:06.585Z,53.10
2019-03-29T23:03:37.836Z,53.20
2019-03-29T23:06:09.041Z,53.20
2019-03-29T23:08:40.515Z,53.20
2019-03-29T23:11:11.713Z,53.40
2019-03-29T23:13:42.986Z,53.40
2019-03-29T23:16:14.978Z,53.50
2019-03-29T23:18:46.183Z,53.70
2019-03-29T23:21:17.411Z,53.70
2019-03-29T23:23:48.497Z,53.90
2019-03-29T23:26:19.806Z,53.90
2019-03-29T23:28:51.092Z,54.10
2019-03-29T23:31:23.506Z,54.10
2019-03-29T23:33:54.746Z,54.20
2019-03-29T23:36:26.025Z,54.30
2019-03-29T23:38:57.295Z,54.40
2019-03-29T23:41:28.903Z,54.40
2019-03-29T23:44:00.070Z,54.60
2019-03-29T23:46:31.253Z,54.60
2019-03-29T23:49:02.331Z,54.70
2019-03-29T23:51:33.591Z,54.80
2019-03-29T23:54:04.747Z,54.80
2019-03-29T23:56:35.801Z,54.90
2019-03-29T23:59:07.406Z,55.00
